Portada
METAR-TAF:

METAR-TAF

Aeropuertos :

El Hierro, España

Aeropuerto de El Hierro

latitud: 27-49N, longitud: 017-53W, altitud: 32 m

Observación

El informe se hizo hace 40 minutos, a las 18:00 UTC
Viento 12 kt del norte-noroeste, variando entre oeste-noroeste y norte-noreste
Temperatura 21°C
Humedad 73%
Presión 1022 hPa
Visibilidad 10 km o más
Nubes dispersas a una altura de 2200 ft

METAR: GCHI 161800Z 34012KT 300V020 9999 SCT022 21/16 Q1022

Hora: 18:40 (18:40 UTC)

Pronóstico

El informe se hizo hace 2 horas y 41 minutos, a las 15:59 UTC
Pronóstico válido del 16 a las 15 UTC al 17 a las 15 UTC
Viento 12 kt del norte-noreste
Visibilidad 10 km o más
Escasas nubes a una altura de 3000 ft
Probabilidad 40% :
Temporalmente
del 16 a las 15 UTC al 17 a las 13 UTC
lluvia

TAF: GCHI 161559Z 1615/1715 02012KT 9999 FEW030 TX21/1714Z TN18/1706Z PROB40 TEMPO 1615/1713 RA

Observaciones y pronósticos meteorológicos de más de 4000 aeropuertos (mensajes METAR y TAF).

Los puntos amarillos y rojos representan las estaciones disponibles.

Ponga el ratón en el punto deseado para ver el nombre de la estación.

Haga clic para ver las observaciones y los pronósticos meteorológicos.

Para cambiar el mapa : haga clic en los botones verdes con una cruz de color negro para hacer un zoom, en el botón verde con un guión para alejar o en las flechas verdes para mapas adyacentes.


METAR-TAF: